sensor_id;sensor_type;location;lat;lon;timestamp;temperature;humidity
65824;SHT31;52585;47.566;19.056;2023-04-01T00:01:00;11.89;73.18
65824;SHT31;52585;47.566;19.056;2023-04-01T00:03:27;11.85;73.32
65824;SHT31;52585;47.566;19.056;2023-04-01T00:05:54;11.81;73.65
65824;SHT31;52585;47.566;19.056;2023-04-01T00:08:21;11.79;73.67
65824;SHT31;52585;47.566;19.056;2023-04-01T00:10:48;11.76;73.74
65824;SHT31;52585;47.566;19.056;2023-04-01T00:13:13;11.73;73.92
65824;SHT31;52585;47.566;19.056;2023-04-01T00:15:39;11.73;73.84
65824;SHT31;52585;47.566;19.056;2023-04-01T00:18:06;11.72;73.47
65824;SHT31;52585;47.566;19.056;2023-04-01T00:20:32;11.68;73.64
65824;SHT31;52585;47.566;19.056;2023-04-01T00:22:57;11.66;73.47
65824;SHT31;52585;47.566;19.056;2023-04-01T00:25:23;11.63;73.67
65824;SHT31;52585;47.566;19.056;2023-04-01T00:27:49;11.63;73.57
65824;SHT31;52585;47.566;19.056;2023-04-01T00:30:16;11.62;73.33
65824;SHT31;52585;47.566;19.056;2023-04-01T00:32:42;11.60;73.35
65824;SHT31;52585;47.566;19.056;2023-04-01T00:35:09;11.61;73.22
65824;SHT31;52585;47.566;19.056;2023-04-01T00:37:35;11.61;73.01
65824;SHT31;52585;47.566;19.056;2023-04-01T00:40:03;11.62;73.19
65824;SHT31;52585;47.566;19.056;2023-04-01T00:42:31;11.64;72.95
65824;SHT31;52585;47.566;19.056;2023-04-01T00:44:57;11.64;72.67
65824;SHT31;52585;47.566;19.056;2023-04-01T00:47:23;11.62;72.85
65824;SHT31;52585;47.566;19.056;2023-04-01T00:49:52;11.62;73.00
65824;SHT31;52585;47.566;19.056;2023-04-01T00:52:21;11.64;72.99
65824;SHT31;52585;47.566;19.056;2023-04-01T00:54:53;11.66;73.03
65824;SHT31;52585;47.566;19.056;2023-04-01T00:57:28;11.67;73.01
65824;SHT31;52585;47.566;19.056;2023-04-01T01:00:02;11.69;72.94
65824;SHT31;52585;47.566;19.056;2023-04-01T01:02:34;11.70;72.97
65824;SHT31;52585;47.566;19.056;2023-04-01T01:05:00;11.72;72.66
65824;SHT31;52585;47.566;19.056;2023-04-01T01:16:06;11.69;72.75
65824;SHT31;52585;47.566;19.056;2023-04-01T01:29:39;11.73;72.45
65824;SHT31;52585;47.566;19.056;2023-04-01T01:32:59;11.70;72.29
65824;SHT31;52585;47.566;19.056;2023-04-01T01:35:56;11.69;72.53
65824;SHT31;52585;47.566;19.056;2023-04-01T01:38:26;11.66;72.95
65824;SHT31;52585;47.566;19.056;2023-04-01T01:40:56;11.66;73.06
65824;SHT31;52585;47.566;19.056;2023-04-01T01:43:25;11.66;72.67
65824;SHT31;52585;47.566;19.056;2023-04-01T01:45:59;11.63;72.82
65824;SHT31;52585;47.566;19.056;2023-04-01T01:48:33;11.63;72.93
65824;SHT31;52585;47.566;19.056;2023-04-01T01:51:00;11.65;72.91
65824;SHT31;52585;47.566;19.056;2023-04-01T01:53:28;11.64;72.83
65824;SHT31;52585;47.566;19.056;2023-04-01T01:55:54;11.64;72.62
65824;SHT31;52585;47.566;19.056;2023-04-01T01:58:20;11.62;72.64
65824;SHT31;52585;47.566;19.056;2023-04-01T02:00:57;11.60;72.72
65824;SHT31;52585;47.566;19.056;2023-04-01T02:03:28;11.60;72.93
65824;SHT31;52585;47.566;19.056;2023-04-01T02:06:04;11.59;72.77
65824;SHT31;52585;47.566;19.056;2023-04-01T02:08:42;11.57;72.81
65824;SHT31;52585;47.566;19.056;2023-04-01T02:11:17;11.57;72.93
65824;SHT31;52585;47.566;19.056;2023-04-01T02:19:38;11.57;72.76
65824;SHT31;52585;47.566;19.056;2023-04-01T02:22:09;11.55;72.64
65824;SHT31;52585;47.566;19.056;2023-04-01T02:24:41;11.52;73.02
65824;SHT31;52585;47.566;19.056;2023-04-01T02:27:09;11.50;72.92
65824;SHT31;52585;47.566;19.056;2023-04-01T02:29:35;11.47;73.20
65824;SHT31;52585;47.566;19.056;2023-04-01T02:32:01;11.48;73.39
65824;SHT31;52585;47.566;19.056;2023-04-01T02:34:30;11.48;73.33
65824;SHT31;52585;47.566;19.056;2023-04-01T02:36:55;11.48;73.10
65824;SHT31;52585;47.566;19.056;2023-04-01T02:39:22;11.45;73.22
65824;SHT31;52585;47.566;19.056;2023-04-01T02:41:50;11.45;72.98
65824;SHT31;52585;47.566;19.056;2023-04-01T02:44:16;11.43;72.96
65824;SHT31;52585;47.566;19.056;2023-04-01T02:46:41;11.39;73.22
65824;SHT31;52585;47.566;19.056;2023-04-01T02:49:08;11.38;73.25
65824;SHT31;52585;47.566;19.056;2023-04-01T02:51:34;11.34;73.43
65824;SHT31;52585;47.566;19.056;2023-04-01T02:53:59;11.33;73.59
65824;SHT31;52585;47.566;19.056;2023-04-01T02:56:26;11.31;73.41
65824;SHT31;52585;47.566;19.056;2023-04-01T02:58:52;11.28;73.42
65824;SHT31;52585;47.566;19.056;2023-04-01T03:01:19;11.26;73.34
65824;SHT31;52585;47.566;19.056;2023-04-01T03:03:46;11.22;73.36
65824;SHT31;52585;47.566;19.056;2023-04-01T03:06:12;11.19;73.28
65824;SHT31;52585;47.566;19.056;2023-04-01T03:08:41;11.13;73.53
65824;SHT31;52585;47.566;19.056;2023-04-01T03:11:08;11.11;73.56
65824;SHT31;52585;47.566;19.056;2023-04-01T03:13:35;11.07;73.51
65824;SHT31;52585;47.566;19.056;2023-04-01T03:16:02;11.02;73.66
65824;SHT31;52585;47.566;19.056;2023-04-01T03:18:28;10.98;73.68
65824;SHT31;52585;47.566;19.056;2023-04-01T03:20:53;10.95;73.60
65824;SHT31;52585;47.566;19.056;2023-04-01T03:23:19;10.91;73.46
65824;SHT31;52585;47.566;19.056;2023-04-01T03:25:46;10.87;73.66
65824;SHT31;52585;47.566;19.056;2023-04-01T03:28:13;10.86;73.62
65824;SHT31;52585;47.566;19.056;2023-04-01T03:30:39;10.83;73.68
65824;SHT31;52585;47.566;19.056;2023-04-01T03:33:05;10.82;73.78
65824;SHT31;52585;47.566;19.056;2023-04-01T03:35:31;10.79;73.67
65824;SHT31;52585;47.566;19.056;2023-04-01T03:37:57;10.76;73.92
65824;SHT31;52585;47.566;19.056;2023-04-01T03:40:23;10.77;73.97
65824;SHT31;52585;47.566;19.056;2023-04-01T03:42:51;10.77;73.94
65824;SHT31;52585;47.566;19.056;2023-04-01T03:45:17;10.79;73.80
65824;SHT31;52585;47.566;19.056;2023-04-01T03:47:43;10.78;73.66
65824;SHT31;52585;47.566;19.056;2023-04-01T03:50:09;10.78;73.72
65824;SHT31;52585;47.566;19.056;2023-04-01T03:52:36;10.76;73.52
65824;SHT31;52585;47.566;19.056;2023-04-01T03:55:01;10.72;73.67
65824;SHT31;52585;47.566;19.056;2023-04-01T03:57:27;10.69;73.86
65824;SHT31;52585;47.566;19.056;2023-04-01T03:59:56;10.67;73.89
65824;SHT31;52585;47.566;19.056;2023-04-01T04:02:21;10.69;73.98
65824;SHT31;52585;47.566;19.056;2023-04-01T04:04:47;10.71;73.84
65824;SHT31;52585;47.566;19.056;2023-04-01T04:07:12;10.70;73.63
65824;SHT31;52585;47.566;19.056;2023-04-01T04:09:38;10.69;73.54
65824;SHT31;52585;47.566;19.056;2023-04-01T04:12:04;10.68;73.47
65824;SHT31;52585;47.566;19.056;2023-04-01T04:14:31;10.65;73.33
65824;SHT31;52585;47.566;19.056;2023-04-01T04:16:57;10.62;73.16
65824;SHT31;52585;47.566;19.056;2023-04-01T04:19:23;10.59;73.23
65824;SHT31;52585;47.566;19.056;2023-04-01T04:21:48;10.58;73.55
65824;SHT31;52585;47.566;19.056;2023-04-01T04:24:14;10.59;73.62
65824;SHT31;52585;47.566;19.056;2023-04-01T04:26:40;10.61;73.55
65824;SHT31;52585;47.566;19.056;2023-04-01T04:29:05;10.63;73.56
65824;SHT31;52585;47.566;19.056;2023-04-01T04:31:32;10.66;73.39
65824;SHT31;52585;47.566;19.056;2023-04-01T04:34:00;10.67;73.21
65824;SHT31;52585;47.566;19.056;2023-04-01T04:36:26;10.66;73.13
65824;SHT31;52585;47.566;19.056;2023-04-01T04:38:52;10.64;73.02
65824;SHT31;52585;47.566;19.056;2023-04-01T04:41:18;10.62;73.37
65824;SHT31;52585;47.566;19.056;2023-04-01T04:43:51;10.62;73.33
65824;SHT31;52585;47.566;19.056;2023-04-01T04:46:20;10.60;73.46
65824;SHT31;52585;47.566;19.056;2023-04-01T04:48:47;10.60;73.59
65824;SHT31;52585;47.566;19.056;2023-04-01T04:51:16;10.60;73.54
65824;SHT31;52585;47.566;19.056;2023-04-01T04:53:44;10.60;73.43
65824;SHT31;52585;47.566;19.056;2023-04-01T04:56:10;10.58;73.43
65824;SHT31;52585;47.566;19.056;2023-04-01T04:58:37;10.57;73.39
65824;SHT31;52585;47.566;19.056;2023-04-01T05:01:08;10.55;73.46
65824;SHT31;52585;47.566;19.056;2023-04-01T05:03:36;10.53;73.64
65824;SHT31;52585;47.566;19.056;2023-04-01T05:06:03;10.53;73.82
65824;SHT31;52585;47.566;19.056;2023-04-01T05:08:30;10.53;73.73
65824;SHT31;52585;47.566;19.056;2023-04-01T05:10:55;10.51;73.56
65824;SHT31;52585;47.566;19.056;2023-04-01T05:13:21;10.48;73.86
65824;SHT31;52585;47.566;19.056;2023-04-01T05:15:47;10.48;73.77
65824;SHT31;52585;47.566;19.056;2023-04-01T05:18:12;10.46;73.52
65824;SHT31;52585;47.566;19.056;2023-04-01T05:20:38;10.46;73.36
65824;SHT31;52585;47.566;19.056;2023-04-01T05:23:04;10.46;73.43
65824;SHT31;52585;47.566;19.056;2023-04-01T05:25:29;10.46;73.52
65824;SHT31;52585;47.566;19.056;2023-04-01T05:27:55;10.49;73.74
65824;SHT31;52585;47.566;19.056;2023-04-01T05:30:20;10.52;73.69
65824;SHT31;52585;47.566;19.056;2023-04-01T05:32:46;10.53;73.79
65824;SHT31;52585;47.566;19.056;2023-04-01T05:35:12;10.57;73.67
65824;SHT31;52585;47.566;19.056;2023-04-01T05:37:38;10.60;73.76
65824;SHT31;52585;47.566;19.056;2023-04-01T05:40:03;10.64;73.64
65824;SHT31;52585;47.566;19.056;2023-04-01T05:42:30;10.68;73.40
65824;SHT31;52585;47.566;19.056;2023-04-01T05:44:56;10.71;73.23
65824;SHT31;52585;47.566;19.056;2023-04-01T05:47:22;10.74;73.45
65824;SHT31;52585;47.566;19.056;2023-04-01T05:49:48;10.79;73.37
65824;SHT31;52585;47.566;19.056;2023-04-01T05:52:13;10.84;73.27
65824;SHT31;52585;47.566;19.056;2023-04-01T05:54:39;10.88;73.32
65824;SHT31;52585;47.566;19.056;2023-04-01T05:57:05;10.93;73.35
65824;SHT31;52585;47.566;19.056;2023-04-01T05:59:30;10.99;73.32
65824;SHT31;52585;47.566;19.056;2023-04-01T06:01:56;11.04;73.33
65824;SHT31;52585;47.566;19.056;2023-04-01T06:04:22;11.10;73.36
65824;SHT31;52585;47.566;19.056;2023-04-01T06:06:50;11.18;72.99
65824;SHT31;52585;47.566;19.056;2023-04-01T06:09:23;11.23;72.69
65824;SHT31;52585;47.566;19.056;2023-04-01T06:15:07;11.31;72.61
65824;SHT31;52585;47.566;19.056;2023-04-01T06:23:40;11.48;72.20
65824;SHT31;52585;47.566;19.056;2023-04-01T06:47:23;11.91;70.82
65824;SHT31;52585;47.566;19.056;2023-04-01T06:50:48;11.93;70.77
65824;SHT31;52585;47.566;19.056;2023-04-01T06:55:57;12.02;70.67
65824;SHT31;52585;47.566;19.056;2023-04-01T07:01:45;12.09;70.21
65824;SHT31;52585;47.566;19.056;2023-04-01T07:04:51;12.11;69.96
65824;SHT31;52585;47.566;19.056;2023-04-01T07:10:12;12.19;69.50
65824;SHT31;52585;47.566;19.056;2023-04-01T07:12:52;12.22;69.52
65824;SHT31;52585;47.566;19.056;2023-04-01T07:15:57;12.25;69.50
65824;SHT31;52585;47.566;19.056;2023-04-01T07:18:42;12.29;69.28
65824;SHT31;52585;47.566;19.056;2023-04-01T07:21:23;12.33;69.33
65824;SHT31;52585;47.566;19.056;2023-04-01T07:24:33;12.38;69.27
65824;SHT31;52585;47.566;19.056;2023-04-01T07:27:03;12.40;68.97
65824;SHT31;52585;47.566;19.056;2023-04-01T07:29:35;12.45;68.90
65824;SHT31;52585;47.566;19.056;2023-04-01T07:32:09;12.50;68.93
65824;SHT31;52585;47.566;19.056;2023-04-01T07:34:50;12.53;68.69
65824;SHT31;52585;47.566;19.056;2023-04-01T07:48:58;12.75;68.02
65824;SHT31;52585;47.566;19.056;2023-04-01T07:51:41;12.78;67.83
65824;SHT31;52585;47.566;19.056;2023-04-01T07:56:46;12.82;67.56
65824;SHT31;52585;47.566;19.056;2023-04-01T07:59:35;12.84;67.47
65824;SHT31;52585;47.566;19.056;2023-04-01T08:10:34;12.95;67.31
65824;SHT31;52585;47.566;19.056;2023-04-01T08:13:23;13.00;67.36
65824;SHT31;52585;47.566;19.056;2023-04-01T08:22:21;13.17;67.00
65824;SHT31;52585;47.566;19.056;2023-04-01T08:24:56;13.20;66.63
65824;SHT31;52585;47.566;19.056;2023-04-01T08:27:41;13.24;66.66
65824;SHT31;52585;47.566;19.056;2023-04-01T08:30:18;13.26;66.38
65824;SHT31;52585;47.566;19.056;2023-04-01T08:35:46;13.31;66.44
65824;SHT31;52585;47.566;19.056;2023-04-01T08:38:23;13.34;66.41
65824;SHT31;52585;47.566;19.056;2023-04-01T08:52:47;13.45;65.96
65824;SHT31;52585;47.566;19.056;2023-04-01T08:55:44;13.46;66.13
65824;SHT31;52585;47.566;19.056;2023-04-01T09:04:14;13.53;65.96
65824;SHT31;52585;47.566;19.056;2023-04-01T09:16:13;13.57;65.54
65824;SHT31;52585;47.566;19.056;2023-04-01T09:22:13;13.66;65.43
65824;SHT31;52585;47.566;19.056;2023-04-01T09:25:38;13.70;65.36
65824;SHT31;52585;47.566;19.056;2023-04-01T09:28:50;13.71;65.14
65824;SHT31;52585;47.566;19.056;2023-04-01T09:31:54;13.74;65.09
65824;SHT31;52585;47.566;19.056;2023-04-01T09:34:45;13.74;64.98
65824;SHT31;52585;47.566;19.056;2023-04-01T09:40:03;13.67;64.71
65824;SHT31;52585;47.566;19.056;2023-04-01T10:07:59;13.64;65.07
65824;SHT31;52585;47.566;19.056;2023-04-01T10:13:46;13.66;65.29
65824;SHT31;52585;47.566;19.056;2023-04-01T10:31:35;13.61;64.56
65824;SHT31;52585;47.566;19.056;2023-04-01T10:37:01;13.59;64.51
65824;SHT31;52585;47.566;19.056;2023-04-01T10:46:19;13.61;64.62
65824;SHT31;52585;47.566;19.056;2023-04-01T10:56:02;13.72;64.78
65824;SHT31;52585;47.566;19.056;2023-04-01T11:14:09;14.03;64.12
65824;SHT31;52585;47.566;19.056;2023-04-01T11:28:27;14.17;63.13
65824;SHT31;52585;47.566;19.056;2023-04-01T11:37:21;14.05;62.92
65824;SHT31;52585;47.566;19.056;2023-04-01T11:40:16;14.02;63.06
65824;SHT31;52585;47.566;19.056;2023-04-01T11:46:26;13.96;62.81
65824;SHT31;52585;47.566;19.056;2023-04-01T12:03:46;13.86;63.28
65824;SHT31;52585;47.566;19.056;2023-04-01T12:12:39;13.99;62.86
65824;SHT31;52585;47.566;19.056;2023-04-01T12:15:51;14.05;62.82
65824;SHT31;52585;47.566;19.056;2023-04-01T12:25:07;14.18;62.22
65824;SHT31;52585;47.566;19.056;2023-04-01T12:28:05;14.21;62.16
65824;SHT31;52585;47.566;19.056;2023-04-01T12:31:31;14.21;62.05
65824;SHT31;52585;47.566;19.056;2023-04-01T13:12:47;14.90;60.36
65824;SHT31;52585;47.566;19.056;2023-04-01T13:15:42;14.93;60.08
65824;SHT31;52585;47.566;19.056;2023-04-01T13:30:22;15.24;59.26
65824;SHT31;52585;47.566;19.056;2023-04-01T13:50:17;15.45;58.74
65824;SHT31;52585;47.566;19.056;2023-04-01T13:56:02;15.44;58.93
65824;SHT31;52585;47.566;19.056;2023-04-01T14:11:53;15.55;58.56
65824;SHT31;52585;47.566;19.056;2023-04-01T14:17:38;15.57;58.63
65824;SHT31;52585;47.566;19.056;2023-04-01T14:50:41;15.56;58.01
65824;SHT31;52585;47.566;19.056;2023-04-01T14:55:54;15.57;57.99
65824;SHT31;52585;47.566;19.056;2023-04-01T14:58:24;15.59;57.98
65824;SHT31;52585;47.566;19.056;2023-04-01T15:12:40;15.56;57.47
65824;SHT31;52585;47.566;19.056;2023-04-01T15:27:15;15.60;57.30
65824;SHT31;52585;47.566;19.056;2023-04-01T15:48:05;15.71;56.28
65824;SHT31;52585;47.566;19.056;2023-04-01T16:03:48;15.64;55.37
65824;SHT31;52585;47.566;19.056;2023-04-01T16:09:33;15.61;55.12
65824;SHT31;52585;47.566;19.056;2023-04-01T16:12:16;15.60;54.68
65824;SHT31;52585;47.566;19.056;2023-04-01T16:20:43;15.55;54.72
65824;SHT31;52585;47.566;19.056;2023-04-01T16:23:42;15.53;54.09
65824;SHT31;52585;47.566;19.056;2023-04-01T16:37:55;15.54;54.90
65824;SHT31;52585;47.566;19.056;2023-04-01T16:49:24;15.47;55.24
65824;SHT31;52585;47.566;19.056;2023-04-01T16:52:14;15.43;55.16
65824;SHT31;52585;47.566;19.056;2023-04-01T16:54:59;15.40;55.22
65824;SHT31;52585;47.566;19.056;2023-04-01T17:03:16;15.33;55.09
65824;SHT31;52585;47.566;19.056;2023-04-01T17:06:25;15.32;55.48
65824;SHT31;52585;47.566;19.056;2023-04-01T17:11:57;15.28;55.42
65824;SHT31;52585;47.566;19.056;2023-04-01T17:17:54;15.24;55.49
65824;SHT31;52585;47.566;19.056;2023-04-01T17:20:43;15.22;55.78
65824;SHT31;52585;47.566;19.056;2023-04-01T17:26:51;15.14;55.53
65824;SHT31;52585;47.566;19.056;2023-04-01T17:32:45;15.05;55.53
65824;SHT31;52585;47.566;19.056;2023-04-01T17:35:34;15.02;55.64
65824;SHT31;52585;47.566;19.056;2023-04-01T17:56:09;14.75;55.83
65824;SHT31;52585;47.566;19.056;2023-04-01T17:59:18;14.69;55.74
65824;SHT31;52585;47.566;19.056;2023-04-01T18:04:46;14.63;56.34
65824;SHT31;52585;47.566;19.056;2023-04-01T18:08:00;14.58;57.05
65824;SHT31;52585;47.566;19.056;2023-04-01T18:13:29;14.39;58.06
65824;SHT31;52585;47.566;19.056;2023-04-01T18:16:17;14.32;58.18
65824;SHT31;52585;47.566;19.056;2023-04-01T18:21:35;14.16;58.36
65824;SHT31;52585;47.566;19.056;2023-04-01T18:24:42;14.10;58.60
65824;SHT31;52585;47.566;19.056;2023-04-01T18:30:28;13.98;59.03
65824;SHT31;52585;47.566;19.056;2023-04-01T18:36:18;13.85;59.40
65824;SHT31;52585;47.566;19.056;2023-04-01T18:38:55;13.79;59.57
65824;SHT31;52585;47.566;19.056;2023-04-01T18:56:49;13.36;60.98
65824;SHT31;52585;47.566;19.056;2023-04-01T19:07:52;13.13;61.86
65824;SHT31;52585;47.566;19.056;2023-04-01T19:21:37;12.80;62.62
65824;SHT31;52585;47.566;19.056;2023-04-01T19:27:46;12.69;63.02
65824;SHT31;52585;47.566;19.056;2023-04-01T19:43:25;12.46;63.76
65824;SHT31;52585;47.566;19.056;2023-04-01T19:52:05;12.41;62.74
65824;SHT31;52585;47.566;19.056;2023-04-01T19:54:56;12.41;62.65
65824;SHT31;52585;47.566;19.056;2023-04-01T20:00:27;12.46;62.68
65824;SHT31;52585;47.566;19.056;2023-04-01T20:06:43;12.48;62.34
65824;SHT31;52585;47.566;19.056;2023-04-01T20:09:41;12.48;62.26
65824;SHT31;52585;47.566;19.056;2023-04-01T20:12:35;12.49;62.37
65824;SHT31;52585;47.566;19.056;2023-04-01T20:15:22;12.48;62.31
65824;SHT31;52585;47.566;19.056;2023-04-01T20:18:02;12.48;62.36
65824;SHT31;52585;47.566;19.056;2023-04-01T20:26:41;12.41;62.58
65824;SHT31;52585;47.566;19.056;2023-04-01T20:35:08;12.31;62.80
65824;SHT31;52585;47.566;19.056;2023-04-01T20:45:08;12.23;63.50
65824;SHT31;52585;47.566;19.056;2023-04-01T20:53:07;12.28;63.79
65824;SHT31;52585;47.566;19.056;2023-04-01T21:04:44;12.15;63.84
65824;SHT31;52585;47.566;19.056;2023-04-01T21:43:12;11.55;65.24
65824;SHT31;52585;47.566;19.056;2023-04-01T21:45:58;11.49;65.37
65824;SHT31;52585;47.566;19.056;2023-04-01T22:00:25;11.28;65.70
65824;SHT31;52585;47.566;19.056;2023-04-01T22:08:43;11.38;65.39
65824;SHT31;52585;47.566;19.056;2023-04-01T22:26:06;11.44;64.88
65824;SHT31;52585;47.566;19.056;2023-04-01T22:28:46;11.43;64.72
65824;SHT31;52585;47.566;19.056;2023-04-01T22:43:12;11.47;64.98
65824;SHT31;52585;47.566;19.056;2023-04-01T22:45:59;11.48;64.95
65824;SHT31;52585;47.566;19.056;2023-04-01T22:48:54;11.50;65.01
65824;SHT31;52585;47.566;19.056;2023-04-01T22:54:58;11.51;65.05
65824;SHT31;52585;47.566;19.056;2023-04-01T22:57:38;11.53;64.98
65824;SHT31;52585;47.566;19.056;2023-04-01T23:00:17;11.53;64.79
65824;SHT31;52585;47.566;19.056;2023-04-01T23:03:54;11.52;64.77
65824;SHT31;52585;47.566;19.056;2023-04-01T23:06:00;11.50;64.74
65824;SHT31;52585;47.566;19.056;2023-04-01T23:11:22;11.42;64.68
65824;SHT31;52585;47.566;19.056;2023-04-01T23:16:56;11.36;64.86
65824;SHT31;52585;47.566;19.056;2023-04-01T23:19:37;11.34;64.94
65824;SHT31;52585;47.566;19.056;2023-04-01T23:22:34;11.31;64.96
65824;SHT31;52585;47.566;19.056;2023-04-01T23:28:54;11.23;65.08
65824;SHT31;52585;47.566;19.056;2023-04-01T23:31:35;11.18;65.29
65824;SHT31;52585;47.566;19.056;2023-04-01T23:36:41;11.12;65.66
65824;SHT31;52585;47.566;19.056;2023-04-01T23:41:53;11.12;65.79
65824;SHT31;52585;47.566;19.056;2023-04-01T23:44:32;11.12;65.91
65824;SHT31;52585;47.566;19.056;2023-04-01T23:47:00;11.11;65.80
65824;SHT31;52585;47.566;19.056;2023-04-01T23:52:44;11.14;65.72
65824;SHT31;52585;47.566;19.056;2023-04-01T23:55:18;11.14;65.54
